sensor_id;sensor_type;location;lat;lon;timestamp;P1;durP1;ratioP1;P2;durP2;ratioP2
53108;SDS011;39007;53.090;6.074;2023-11-19T00:00:44;43.30;;;8.07;;
53108;SDS011;39007;53.090;6.074;2023-11-19T00:03:10;40.60;;;8.40;;
53108;SDS011;39007;53.090;6.074;2023-11-19T00:05:38;45.25;;;8.27;;
53108;SDS011;39007;53.090;6.074;2023-11-19T00:08:04;47.08;;;8.88;;
53108;SDS011;39007;53.090;6.074;2023-11-19T00:10:31;43.17;;;8.13;;
53108;SDS011;39007;53.090;6.074;2023-11-19T00:12:57;38.72;;;7.43;;
53108;SDS011;39007;53.090;6.074;2023-11-19T00:15:23;47.08;;;8.38;;
53108;SDS011;39007;53.090;6.074;2023-11-19T00:17:50;48.83;;;8.60;;
53108;SDS011;39007;53.090;6.074;2023-11-19T00:20:17;45.38;;;8.77;;
53108;SDS011;39007;53.090;6.074;2023-11-19T00:22:44;40.10;;;7.65;;
53108;SDS011;39007;53.090;6.074;2023-11-19T00:25:13;43.85;;;7.82;;
53108;SDS011;39007;53.090;6.074;2023-11-19T00:27:39;47.65;;;8.63;;
53108;SDS011;39007;53.090;6.074;2023-11-19T00:30:06;45.13;;;8.07;;
53108;SDS011;39007;53.090;6.074;2023-11-19T00:32:33;42.92;;;8.05;;
53108;SDS011;39007;53.090;6.074;2023-11-19T00:35:00;60.97;;;8.60;;
53108;SDS011;39007;53.090;6.074;2023-11-19T00:37:26;47.20;;;8.32;;
53108;SDS011;39007;53.090;6.074;2023-11-19T00:39:52;42.15;;;8.20;;
53108;SDS011;39007;53.090;6.074;2023-11-19T00:42:18;46.72;;;8.27;;
53108;SDS011;39007;53.090;6.074;2023-11-19T00:44:45;43.50;;;8.00;;
53108;SDS011;39007;53.090;6.074;2023-11-19T00:47:11;45.55;;;8.05;;
53108;SDS011;39007;53.090;6.074;2023-11-19T00:49:37;48.90;;;8.40;;
53108;SDS011;39007;53.090;6.074;2023-11-19T00:52:04;46.67;;;8.10;;
53108;SDS011;39007;53.090;6.074;2023-11-19T00:54:31;49.72;;;8.20;;
53108;SDS011;39007;53.090;6.074;2023-11-19T00:56:57;45.65;;;8.25;;
53108;SDS011;39007;53.090;6.074;2023-11-19T00:59:25;51.38;;;8.73;;
53108;SDS011;39007;53.090;6.074;2023-11-19T01:01:51;44.20;;;7.72;;
53108;SDS011;39007;53.090;6.074;2023-11-19T01:04:17;49.47;;;8.13;;
53108;SDS011;39007;53.090;6.074;2023-11-19T01:06:43;51.00;;;8.50;;
53108;SDS011;39007;53.090;6.074;2023-11-19T01:09:10;47.03;;;7.43;;
53108;SDS011;39007;53.090;6.074;2023-11-19T01:11:36;51.85;;;7.93;;
53108;SDS011;39007;53.090;6.074;2023-11-19T01:14:02;50.28;;;7.85;;
53108;SDS011;39007;53.090;6.074;2023-11-19T01:16:28;58.13;;;8.32;;
53108;SDS011;39007;53.090;6.074;2023-11-19T01:18:54;47.58;;;7.80;;
53108;SDS011;39007;53.090;6.074;2023-11-19T01:21:21;44.25;;;7.95;;
53108;SDS011;39007;53.090;6.074;2023-11-19T01:23:47;54.28;;;8.68;;
53108;SDS011;39007;53.090;6.074;2023-11-19T01:26:13;47.95;;;8.55;;
53108;SDS011;39007;53.090;6.074;2023-11-19T01:28:40;42.45;;;7.57;;
53108;SDS011;39007;53.090;6.074;2023-11-19T01:31:10;48.40;;;8.27;;
53108;SDS011;39007;53.090;6.074;2023-11-19T01:33:37;57.78;;;8.88;;
53108;SDS011;39007;53.090;6.074;2023-11-19T01:36:04;47.20;;;7.78;;
53108;SDS011;39007;53.090;6.074;2023-11-19T01:38:30;54.72;;;8.48;;
53108;SDS011;39007;53.090;6.074;2023-11-19T01:40:56;43.80;;;7.07;;
53108;SDS011;39007;53.090;6.074;2023-11-19T01:43:32;41.05;;;7.82;;
53108;SDS011;39007;53.090;6.074;2023-11-19T01:45:59;54.10;;;8.65;;
53108;SDS011;39007;53.090;6.074;2023-11-19T01:48:25;49.35;;;8.05;;
53108;SDS011;39007;53.090;6.074;2023-11-19T01:50:52;44.65;;;8.07;;
53108;SDS011;39007;53.090;6.074;2023-11-19T01:53:18;56.03;;;8.82;;
53108;SDS011;39007;53.090;6.074;2023-11-19T01:55:46;60.30;;;8.30;;
53108;SDS011;39007;53.090;6.074;2023-11-19T01:58:12;51.60;;;8.63;;
53108;SDS011;39007;53.090;6.074;2023-11-19T02:00:38;54.03;;;9.60;;
53108;SDS011;39007;53.090;6.074;2023-11-19T02:03:08;52.92;;;8.68;;
53108;SDS011;39007;53.090;6.074;2023-11-19T02:05:34;52.80;;;8.55;;
53108;SDS011;39007;53.090;6.074;2023-11-19T02:08:01;54.75;;;8.23;;
53108;SDS011;39007;53.090;6.074;2023-11-19T02:10:28;47.35;;;8.73;;
53108;SDS011;39007;53.090;6.074;2023-11-19T02:12:54;65.82;;;8.65;;
53108;SDS011;39007;53.090;6.074;2023-11-19T02:15:20;55.97;;;8.90;;
53108;SDS011;39007;53.090;6.074;2023-11-19T02:17:49;51.20;;;8.70;;
53108;SDS011;39007;53.090;6.074;2023-11-19T02:20:16;53.60;;;7.75;;
53108;SDS011;39007;53.090;6.074;2023-11-19T02:22:45;49.83;;;7.85;;
53108;SDS011;39007;53.090;6.074;2023-11-19T02:25:14;49.05;;;8.40;;
53108;SDS011;39007;53.090;6.074;2023-11-19T02:27:51;41.38;;;7.45;;
53108;SDS011;39007;53.090;6.074;2023-11-19T02:30:21;51.88;;;8.82;;
53108;SDS011;39007;53.090;6.074;2023-11-19T02:32:54;48.08;;;7.82;;
53108;SDS011;39007;53.090;6.074;2023-11-19T02:35:24;51.50;;;8.40;;
53108;SDS011;39007;53.090;6.074;2023-11-19T02:37:51;46.63;;;7.75;;
53108;SDS011;39007;53.090;6.074;2023-11-19T02:40:17;44.40;;;8.10;;
53108;SDS011;39007;53.090;6.074;2023-11-19T02:42:43;48.38;;;7.95;;
53108;SDS011;39007;53.090;6.074;2023-11-19T02:45:10;46.38;;;7.63;;
53108;SDS011;39007;53.090;6.074;2023-11-19T02:47:40;45.22;;;8.15;;
53108;SDS011;39007;53.090;6.074;2023-11-19T02:50:08;48.13;;;7.70;;
53108;SDS011;39007;53.090;6.074;2023-11-19T02:52:40;55.88;;;8.75;;
53108;SDS011;39007;53.090;6.074;2023-11-19T02:55:06;52.38;;;7.80;;
53108;SDS011;39007;53.090;6.074;2023-11-19T02:57:38;48.38;;;7.70;;
53108;SDS011;39007;53.090;6.074;2023-11-19T03:00:12;46.13;;;9.02;;
53108;SDS011;39007;53.090;6.074;2023-11-19T03:02:41;44.47;;;7.93;;
53108;SDS011;39007;53.090;6.074;2023-11-19T03:05:14;45.40;;;7.75;;
53108;SDS011;39007;53.090;6.074;2023-11-19T03:07:42;52.35;;;8.95;;
53108;SDS011;39007;53.090;6.074;2023-11-19T03:10:11;44.50;;;7.78;;
53108;SDS011;39007;53.090;6.074;2023-11-19T03:12:44;54.83;;;9.45;;
53108;SDS011;39007;53.090;6.074;2023-11-19T03:15:12;55.45;;;8.65;;
53108;SDS011;39007;53.090;6.074;2023-11-19T03:17:39;51.05;;;8.45;;
53108;SDS011;39007;53.090;6.074;2023-11-19T03:20:06;54.03;;;8.65;;
53108;SDS011;39007;53.090;6.074;2023-11-19T03:22:34;51.17;;;8.60;;
53108;SDS011;39007;53.090;6.074;2023-11-19T03:25:01;59.38;;;8.52;;
53108;SDS011;39007;53.090;6.074;2023-11-19T03:27:27;48.28;;;8.32;;
53108;SDS011;39007;53.090;6.074;2023-11-19T03:29:53;43.60;;;8.05;;
53108;SDS011;39007;53.090;6.074;2023-11-19T03:32:19;52.22;;;8.70;;
53108;SDS011;39007;53.090;6.074;2023-11-19T03:34:45;53.00;;;9.10;;
53108;SDS011;39007;53.090;6.074;2023-11-19T03:37:11;54.22;;;8.93;;
53108;SDS011;39007;53.090;6.074;2023-11-19T03:39:41;54.55;;;9.05;;
53108;SDS011;39007;53.090;6.074;2023-11-19T03:42:07;53.55;;;9.40;;
53108;SDS011;39007;53.090;6.074;2023-11-19T03:44:33;51.08;;;8.90;;
53108;SDS011;39007;53.090;6.074;2023-11-19T03:46:59;48.05;;;8.23;;
53108;SDS011;39007;53.090;6.074;2023-11-19T03:49:26;59.75;;;9.88;;
53108;SDS011;39007;53.090;6.074;2023-11-19T03:51:53;51.85;;;7.85;;
53108;SDS011;39007;53.090;6.074;2023-11-19T03:54:19;50.15;;;8.00;;
53108;SDS011;39007;53.090;6.074;2023-11-19T03:56:46;54.20;;;9.70;;
53108;SDS011;39007;53.090;6.074;2023-11-19T03:59:12;58.08;;;8.82;;
53108;SDS011;39007;53.090;6.074;2023-11-19T04:01:40;56.55;;;9.93;;
53108;SDS011;39007;53.090;6.074;2023-11-19T04:04:06;44.15;;;8.07;;
53108;SDS011;39007;53.090;6.074;2023-11-19T04:06:32;47.00;;;8.55;;
53108;SDS011;39007;53.090;6.074;2023-11-19T04:08:59;46.92;;;8.82;;
53108;SDS011;39007;53.090;6.074;2023-11-19T04:11:26;53.83;;;9.40;;
53108;SDS011;39007;53.090;6.074;2023-11-19T04:13:52;50.28;;;9.05;;
53108;SDS011;39007;53.090;6.074;2023-11-19T04:16:18;54.50;;;9.55;;
53108;SDS011;39007;53.090;6.074;2023-11-19T04:18:44;52.05;;;8.52;;
53108;SDS011;39007;53.090;6.074;2023-11-19T04:21:10;55.20;;;10.13;;
53108;SDS011;39007;53.090;6.074;2023-11-19T04:23:36;51.08;;;9.15;;
53108;SDS011;39007;53.090;6.074;2023-11-19T04:26:02;52.63;;;9.63;;
53108;SDS011;39007;53.090;6.074;2023-11-19T04:28:30;58.10;;;8.93;;
53108;SDS011;39007;53.090;6.074;2023-11-19T04:30:56;50.80;;;9.52;;
53108;SDS011;39007;53.090;6.074;2023-11-19T04:33:22;63.45;;;10.07;;
53108;SDS011;39007;53.090;6.074;2023-11-19T04:35:48;59.08;;;11.30;;
53108;SDS011;39007;53.090;6.074;2023-11-19T04:38:14;55.10;;;9.38;;
53108;SDS011;39007;53.090;6.074;2023-11-19T04:40:40;59.97;;;9.55;;
53108;SDS011;39007;53.090;6.074;2023-11-19T04:43:07;54.53;;;9.15;;
53108;SDS011;39007;53.090;6.074;2023-11-19T04:45:33;56.55;;;10.10;;
53108;SDS011;39007;53.090;6.074;2023-11-19T04:47:59;62.80;;;10.20;;
53108;SDS011;39007;53.090;6.074;2023-11-19T04:50:25;67.28;;;11.05;;
53108;SDS011;39007;53.090;6.074;2023-11-19T04:52:52;59.50;;;10.02;;
53108;SDS011;39007;53.090;6.074;2023-11-19T04:55:18;62.58;;;10.52;;
53108;SDS011;39007;53.090;6.074;2023-11-19T04:57:45;51.00;;;9.57;;
53108;SDS011;39007;53.090;6.074;2023-11-19T05:00:11;61.03;;;9.82;;
53108;SDS011;39007;53.090;6.074;2023-11-19T05:02:37;53.85;;;9.95;;
53108;SDS011;39007;53.090;6.074;2023-11-19T05:05:03;60.13;;;10.68;;
53108;SDS011;39007;53.090;6.074;2023-11-19T05:07:30;57.90;;;9.95;;
53108;SDS011;39007;53.090;6.074;2023-11-19T05:09:56;57.78;;;10.50;;
53108;SDS011;39007;53.090;6.074;2023-11-19T05:12:23;53.63;;;9.93;;
53108;SDS011;39007;53.090;6.074;2023-11-19T05:14:49;59.78;;;10.63;;
53108;SDS011;39007;53.090;6.074;2023-11-19T05:17:17;59.92;;;11.35;;
53108;SDS011;39007;53.090;6.074;2023-11-19T05:19:43;61.55;;;10.45;;
53108;SDS011;39007;53.090;6.074;2023-11-19T05:22:10;61.85;;;10.40;;
53108;SDS011;39007;53.090;6.074;2023-11-19T05:24:36;60.25;;;10.05;;
53108;SDS011;39007;53.090;6.074;2023-11-19T05:27:02;62.95;;;10.90;;
53108;SDS011;39007;53.090;6.074;2023-11-19T05:29:28;59.58;;;10.88;;
53108;SDS011;39007;53.090;6.074;2023-11-19T05:31:54;59.92;;;10.25;;
53108;SDS011;39007;53.090;6.074;2023-11-19T05:34:21;56.70;;;9.43;;
53108;SDS011;39007;53.090;6.074;2023-11-19T05:36:47;53.55;;;10.00;;
53108;SDS011;39007;53.090;6.074;2023-11-19T05:39:13;53.40;;;9.85;;
53108;SDS011;39007;53.090;6.074;2023-11-19T05:41:39;51.53;;;9.60;;
53108;SDS011;39007;53.090;6.074;2023-11-19T05:44:05;55.70;;;11.02;;
53108;SDS011;39007;53.090;6.074;2023-11-19T05:46:32;48.78;;;8.77;;
53108;SDS011;39007;53.090;6.074;2023-11-19T05:48:58;47.78;;;9.55;;
53108;SDS011;39007;53.090;6.074;2023-11-19T05:51:24;48.58;;;9.45;;
53108;SDS011;39007;53.090;6.074;2023-11-19T05:53:50;57.00;;;10.15;;
53108;SDS011;39007;53.090;6.074;2023-11-19T05:56:16;49.65;;;7.95;;
53108;SDS011;39007;53.090;6.074;2023-11-19T05:58:46;48.65;;;9.23;;
53108;SDS011;39007;53.090;6.074;2023-11-19T06:01:14;47.72;;;8.93;;
53108;SDS011;39007;53.090;6.074;2023-11-19T06:03:40;56.92;;;10.27;;
53108;SDS011;39007;53.090;6.074;2023-11-19T06:06:08;58.28;;;10.32;;
53108;SDS011;39007;53.090;6.074;2023-11-19T06:08:35;53.70;;;9.57;;
53108;SDS011;39007;53.090;6.074;2023-11-19T06:11:02;59.70;;;9.90;;
53108;SDS011;39007;53.090;6.074;2023-11-19T06:13:28;53.05;;;9.55;;
53108;SDS011;39007;53.090;6.074;2023-11-19T06:15:55;50.60;;;9.13;;
53108;SDS011;39007;53.090;6.074;2023-11-19T06:18:21;56.33;;;9.73;;
53108;SDS011;39007;53.090;6.074;2023-11-19T06:20:48;58.75;;;10.13;;
53108;SDS011;39007;53.090;6.074;2023-11-19T06:23:15;54.00;;;9.70;;
53108;SDS011;39007;53.090;6.074;2023-11-19T06:25:41;58.53;;;10.60;;
53108;SDS011;39007;53.090;6.074;2023-11-19T06:28:07;52.80;;;10.02;;
53108;SDS011;39007;53.090;6.074;2023-11-19T06:30:33;57.83;;;9.73;;
53108;SDS011;39007;53.090;6.074;2023-11-19T06:33:01;51.08;;;9.60;;
53108;SDS011;39007;53.090;6.074;2023-11-19T06:35:28;55.00;;;10.50;;
53108;SDS011;39007;53.090;6.074;2023-11-19T06:38:01;55.92;;;9.75;;
53108;SDS011;39007;53.090;6.074;2023-11-19T06:40:27;61.03;;;10.23;;
53108;SDS011;39007;53.090;6.074;2023-11-19T06:42:54;47.42;;;8.80;;
53108;SDS011;39007;53.090;6.074;2023-11-19T06:45:21;52.78;;;9.18;;
53108;SDS011;39007;53.090;6.074;2023-11-19T06:47:47;52.40;;;9.43;;
53108;SDS011;39007;53.090;6.074;2023-11-19T06:50:14;58.00;;;9.30;;
53108;SDS011;39007;53.090;6.074;2023-11-19T06:52:40;55.55;;;9.70;;
53108;SDS011;39007;53.090;6.074;2023-11-19T06:55:06;54.80;;;10.93;;
53108;SDS011;39007;53.090;6.074;2023-11-19T06:57:33;56.22;;;9.80;;
53108;SDS011;39007;53.090;6.074;2023-11-19T06:59:59;58.88;;;10.60;;
53108;SDS011;39007;53.090;6.074;2023-11-19T07:02:25;61.85;;;10.10;;
53108;SDS011;39007;53.090;6.074;2023-11-19T07:04:52;50.72;;;9.20;;
53108;SDS011;39007;53.090;6.074;2023-11-19T07:07:18;52.30;;;9.63;;
53108;SDS011;39007;53.090;6.074;2023-11-19T07:09:45;47.80;;;9.10;;
53108;SDS011;39007;53.090;6.074;2023-11-19T07:12:11;61.10;;;10.00;;
53108;SDS011;39007;53.090;6.074;2023-11-19T07:14:38;59.80;;;10.43;;
53108;SDS011;39007;53.090;6.074;2023-11-19T07:17:04;51.10;;;10.35;;
53108;SDS011;39007;53.090;6.074;2023-11-19T07:19:31;53.50;;;9.45;;
53108;SDS011;39007;53.090;6.074;2023-11-19T07:21:57;44.63;;;8.73;;
53108;SDS011;39007;53.090;6.074;2023-11-19T07:24:23;51.28;;;9.30;;
53108;SDS011;39007;53.090;6.074;2023-11-19T07:26:49;49.55;;;8.40;;
53108;SDS011;39007;53.090;6.074;2023-11-19T07:29:15;50.28;;;8.85;;
53108;SDS011;39007;53.090;6.074;2023-11-19T07:31:42;48.80;;;8.65;;
53108;SDS011;39007;53.090;6.074;2023-11-19T07:34:11;66.13;;;10.30;;
53108;SDS011;39007;53.090;6.074;2023-11-19T07:36:39;55.10;;;10.02;;
53108;SDS011;39007;53.090;6.074;2023-11-19T07:39:05;52.70;;;9.73;;
53108;SDS011;39007;53.090;6.074;2023-11-19T07:41:31;46.88;;;8.50;;
53108;SDS011;39007;53.090;6.074;2023-11-19T07:43:57;63.97;;;10.40;;
53108;SDS011;39007;53.090;6.074;2023-11-19T07:46:23;52.22;;;9.27;;
53108;SDS011;39007;53.090;6.074;2023-11-19T07:48:50;46.92;;;9.88;;
53108;SDS011;39007;53.090;6.074;2023-11-19T07:51:16;47.63;;;8.82;;
53108;SDS011;39007;53.090;6.074;2023-11-19T07:53:42;59.60;;;9.82;;
53108;SDS011;39007;53.090;6.074;2023-11-19T07:56:08;57.15;;;9.32;;
53108;SDS011;39007;53.090;6.074;2023-11-19T07:58:35;59.80;;;11.15;;
53108;SDS011;39007;53.090;6.074;2023-11-19T08:01:01;43.67;;;8.90;;
53108;SDS011;39007;53.090;6.074;2023-11-19T08:03:28;47.47;;;9.45;;
53108;SDS011;39007;53.090;6.074;2023-11-19T08:05:57;50.90;;;8.80;;
53108;SDS011;39007;53.090;6.074;2023-11-19T08:08:23;51.92;;;8.93;;
53108;SDS011;39007;53.090;6.074;2023-11-19T08:10:49;52.40;;;9.00;;
53108;SDS011;39007;53.090;6.074;2023-11-19T08:13:19;54.95;;;9.68;;
53108;SDS011;39007;53.090;6.074;2023-11-19T08:15:45;49.72;;;8.90;;
53108;SDS011;39007;53.090;6.074;2023-11-19T08:18:12;68.63;;;9.55;;
53108;SDS011;39007;53.090;6.074;2023-11-19T08:20:38;56.83;;;9.88;;
53108;SDS011;39007;53.090;6.074;2023-11-19T08:23:04;54.83;;;9.38;;
53108;SDS011;39007;53.090;6.074;2023-11-19T08:25:30;47.38;;;9.35;;
53108;SDS011;39007;53.090;6.074;2023-11-19T08:27:59;51.15;;;9.32;;
53108;SDS011;39007;53.090;6.074;2023-11-19T08:30:25;52.17;;;9.93;;
53108;SDS011;39007;53.090;6.074;2023-11-19T08:32:52;58.15;;;9.40;;
53108;SDS011;39007;53.090;6.074;2023-11-19T08:35:18;54.50;;;9.82;;
53108;SDS011;39007;53.090;6.074;2023-11-19T08:37:44;53.28;;;9.80;;
53108;SDS011;39007;53.090;6.074;2023-11-19T08:40:11;56.53;;;11.27;;
53108;SDS011;39007;53.090;6.074;2023-11-19T08:42:40;48.95;;;8.50;;
53108;SDS011;39007;53.090;6.074;2023-11-19T08:45:06;60.83;;;10.38;;
53108;SDS011;39007;53.090;6.074;2023-11-19T08:47:35;51.85;;;10.30;;
53108;SDS011;39007;53.090;6.074;2023-11-19T08:50:01;54.08;;;9.77;;
53108;SDS011;39007;53.090;6.074;2023-11-19T08:52:29;59.20;;;9.95;;
53108;SDS011;39007;53.090;6.074;2023-11-19T08:54:55;59.60;;;10.05;;
53108;SDS011;39007;53.090;6.074;2023-11-19T08:57:22;53.88;;;9.27;;
53108;SDS011;39007;53.090;6.074;2023-11-19T08:59:48;49.65;;;9.23;;
53108;SDS011;39007;53.090;6.074;2023-11-19T09:02:14;55.75;;;10.38;;
53108;SDS011;39007;53.090;6.074;2023-11-19T09:04:40;45.50;;;7.93;;
53108;SDS011;39007;53.090;6.074;2023-11-19T09:07:06;57.15;;;9.68;;
53108;SDS011;39007;53.090;6.074;2023-11-19T09:09:34;50.38;;;8.88;;
53108;SDS011;39007;53.090;6.074;2023-11-19T09:12:01;49.70;;;9.07;;
53108;SDS011;39007;53.090;6.074;2023-11-19T09:14:28;51.80;;;9.95;;
53108;SDS011;39007;53.090;6.074;2023-11-19T09:16:55;50.72;;;8.95;;
53108;SDS011;39007;53.090;6.074;2023-11-19T09:19:21;46.15;;;10.05;;
53108;SDS011;39007;53.090;6.074;2023-11-19T09:21:47;49.88;;;8.88;;
53108;SDS011;39007;53.090;6.074;2023-11-19T09:24:14;47.10;;;8.85;;
53108;SDS011;39007;53.090;6.074;2023-11-19T09:26:40;44.35;;;9.30;;
53108;SDS011;39007;53.090;6.074;2023-11-19T09:29:07;51.55;;;8.95;;
53108;SDS011;39007;53.090;6.074;2023-11-19T09:31:33;54.75;;;9.23;;
53108;SDS011;39007;53.090;6.074;2023-11-19T09:33:59;52.13;;;9.20;;
53108;SDS011;39007;53.090;6.074;2023-11-19T09:36:26;46.58;;;9.57;;
53108;SDS011;39007;53.090;6.074;2023-11-19T09:38:52;50.95;;;8.50;;
53108;SDS011;39007;53.090;6.074;2023-11-19T09:41:18;48.80;;;8.70;;
53108;SDS011;39007;53.090;6.074;2023-11-19T09:43:44;52.17;;;9.20;;
53108;SDS011;39007;53.090;6.074;2023-11-19T09:46:13;51.97;;;9.35;;
53108;SDS011;39007;53.090;6.074;2023-11-19T09:48:40;49.00;;;9.27;;
53108;SDS011;39007;53.090;6.074;2023-11-19T09:51:07;42.80;;;8.80;;
53108;SDS011;39007;53.090;6.074;2023-11-19T09:53:34;49.97;;;8.77;;
53108;SDS011;39007;53.090;6.074;2023-11-19T09:56:01;51.42;;;9.07;;
53108;SDS011;39007;53.090;6.074;2023-11-19T09:58:28;55.40;;;9.63;;
53108;SDS011;39007;53.090;6.074;2023-11-19T10:00:56;50.60;;;9.13;;
53108;SDS011;39007;53.090;6.074;2023-11-19T10:03:24;48.28;;;9.05;;
53108;SDS011;39007;53.090;6.074;2023-11-19T10:05:50;50.97;;;9.05;;
53108;SDS011;39007;53.090;6.074;2023-11-19T10:08:16;51.00;;;8.82;;
53108;SDS011;39007;53.090;6.074;2023-11-19T10:10:42;52.75;;;8.55;;
53108;SDS011;39007;53.090;6.074;2023-11-19T10:13:09;53.00;;;8.98;;
53108;SDS011;39007;53.090;6.074;2023-11-19T10:15:36;49.28;;;8.98;;
53108;SDS011;39007;53.090;6.074;2023-11-19T10:18:02;52.97;;;9.30;;
53108;SDS011;39007;53.090;6.074;2023-11-19T10:20:38;55.88;;;10.18;;
53108;SDS011;39007;53.090;6.074;2023-11-19T10:23:06;51.33;;;8.95;;
53108;SDS011;39007;53.090;6.074;2023-11-19T10:25:33;48.78;;;8.20;;
53108;SDS011;39007;53.090;6.074;2023-11-19T10:27:59;52.40;;;8.93;;
53108;SDS011;39007;53.090;6.074;2023-11-19T10:30:26;48.10;;;8.73;;
53108;SDS011;39007;53.090;6.074;2023-11-19T10:35:35;48.13;;;8.43;;
53108;SDS011;39007;53.090;6.074;2023-11-19T10:38:04;48.25;;;9.00;;
53108;SDS011;39007;53.090;6.074;2023-11-19T10:40:39;45.35;;;8.40;;
53108;SDS011;39007;53.090;6.074;2023-11-19T10:43:05;39.35;;;7.68;;
53108;SDS011;39007;53.090;6.074;2023-11-19T10:45:38;42.38;;;8.23;;
53108;SDS011;39007;53.090;6.074;2023-11-19T10:48:05;50.63;;;8.77;;
53108;SDS011;39007;53.090;6.074;2023-11-19T10:50:38;48.83;;;8.02;;
53108;SDS011;39007;53.090;6.074;2023-11-19T10:53:04;50.75;;;9.63;;
53108;SDS011;39007;53.090;6.074;2023-11-19T10:55:31;46.70;;;8.43;;
53108;SDS011;39007;53.090;6.074;2023-11-19T10:58:01;45.30;;;8.30;;
53108;SDS011;39007;53.090;6.074;2023-11-19T11:03:19;37.80;;;7.20;;
53108;SDS011;39007;53.090;6.074;2023-11-19T11:05:48;43.78;;;8.55;;
53108;SDS011;39007;53.090;6.074;2023-11-19T11:08:15;38.55;;;7.88;;
53108;SDS011;39007;53.090;6.074;2023-11-19T11:10:52;40.88;;;7.57;;
53108;SDS011;39007;53.090;6.074;2023-11-19T11:13:19;49.45;;;9.07;;
53108;SDS011;39007;53.090;6.074;2023-11-19T11:15:45;42.33;;;8.30;;
53108;SDS011;39007;53.090;6.074;2023-11-19T11:18:12;44.20;;;7.68;;
53108;SDS011;39007;53.090;6.074;2023-11-19T11:20:39;45.33;;;8.55;;
53108;SDS011;39007;53.090;6.074;2023-11-19T11:36:22;54.60;;;8.80;;
53108;SDS011;39007;53.090;6.074;2023-11-19T11:38:49;53.03;;;8.45;;
53108;SDS011;39007;53.090;6.074;2023-11-19T11:41:22;49.28;;;8.73;;
53108;SDS011;39007;53.090;6.074;2023-11-19T11:43:49;43.50;;;8.32;;
53108;SDS011;39007;53.090;6.074;2023-11-19T11:54:10;41.30;;;7.97;;
53108;SDS011;39007;53.090;6.074;2023-11-19T11:56:37;53.33;;;9.25;;
53108;SDS011;39007;53.090;6.074;2023-11-19T11:59:24;47.85;;;8.90;;
53108;SDS011;39007;53.090;6.074;2023-11-19T12:04:16;45.75;;;8.20;;
53108;SDS011;39007;53.090;6.074;2023-11-19T12:06:42;37.13;;;7.68;;
53108;SDS011;39007;53.090;6.074;2023-11-19T12:09:28;46.53;;;8.83;;
53108;SDS011;39007;53.090;6.074;2023-11-19T12:12:07;41.22;;;8.10;;
53108;SDS011;39007;53.090;6.074;2023-11-19T12:20:03;42.17;;;7.30;;
53108;SDS011;39007;53.090;6.074;2023-11-19T12:22:43;39.80;;;7.75;;
53108;SDS011;39007;53.090;6.074;2023-11-19T12:27:36;37.42;;;7.20;;
53108;SDS011;39007;53.090;6.074;2023-11-19T12:30:03;44.83;;;7.93;;
53108;SDS011;39007;53.090;6.074;2023-11-19T12:32:38;42.10;;;7.97;;
53108;SDS011;39007;53.090;6.074;2023-11-19T12:35:05;40.88;;;8.13;;
53108;SDS011;39007;53.090;6.074;2023-11-19T12:37:32;36.60;;;7.38;;
53108;SDS011;39007;53.090;6.074;2023-11-19T12:39:58;37.17;;;7.65;;
53108;SDS011;39007;53.090;6.074;2023-11-19T12:42:36;46.05;;;8.52;;
53108;SDS011;39007;53.090;6.074;2023-11-19T12:45:04;44.90;;;7.53;;
53108;SDS011;39007;53.090;6.074;2023-11-19T12:47:30;35.13;;;6.88;;
53108;SDS011;39007;53.090;6.074;2023-11-19T12:49:56;39.97;;;8.00;;
53108;SDS011;39007;53.090;6.074;2023-11-19T12:52:22;44.80;;;8.52;;
53108;SDS011;39007;53.090;6.074;2023-11-19T12:54:49;39.90;;;7.35;;
53108;SDS011;39007;53.090;6.074;2023-11-19T12:57:16;41.03;;;7.55;;
53108;SDS011;39007;53.090;6.074;2023-11-19T12:59:54;36.60;;;7.68;;
53108;SDS011;39007;53.090;6.074;2023-11-19T13:02:21;39.67;;;7.53;;
53108;SDS011;39007;53.090;6.074;2023-11-19T13:04:47;34.75;;;7.35;;
53108;SDS011;39007;53.090;6.074;2023-11-19T13:07:13;37.42;;;7.20;;
53108;SDS011;39007;53.090;6.074;2023-11-19T13:09:40;34.05;;;7.32;;
53108;SDS011;39007;53.090;6.074;2023-11-19T13:12:13;38.03;;;6.72;;
53108;SDS011;39007;53.090;6.074;2023-11-19T13:14:40;39.78;;;6.90;;
53108;SDS011;39007;53.090;6.074;2023-11-19T13:17:07;40.97;;;8.45;;
53108;SDS011;39007;53.090;6.074;2023-11-19T13:19:34;33.97;;;6.93;;
53108;SDS011;39007;53.090;6.074;2023-11-19T13:22:00;36.53;;;7.47;;
53108;SDS011;39007;53.090;6.074;2023-11-19T13:24:26;37.38;;;7.20;;
53108;SDS011;39007;53.090;6.074;2023-11-19T13:26:52;39.88;;;7.05;;
53108;SDS011;39007;53.090;6.074;2023-11-19T13:29:18;37.80;;;7.10;;
53108;SDS011;39007;53.090;6.074;2023-11-19T13:31:44;37.92;;;7.22;;
53108;SDS011;39007;53.090;6.074;2023-11-19T13:34:10;36.78;;;7.30;;
53108;SDS011;39007;53.090;6.074;2023-11-19T13:36:36;37.30;;;7.28;;
53108;SDS011;39007;53.090;6.074;2023-11-19T13:39:03;37.47;;;7.20;;
53108;SDS011;39007;53.090;6.074;2023-11-19T13:41:29;37.65;;;7.45;;
53108;SDS011;39007;53.090;6.074;2023-11-19T13:43:55;37.60;;;7.13;;
53108;SDS011;39007;53.090;6.074;2023-11-19T13:46:21;33.90;;;7.05;;
53108;SDS011;39007;53.090;6.074;2023-11-19T13:48:48;35.15;;;7.15;;
53108;SDS011;39007;53.090;6.074;2023-11-19T13:51:14;35.47;;;7.45;;
53108;SDS011;39007;53.090;6.074;2023-11-19T13:53:41;34.92;;;7.25;;
53108;SDS011;39007;53.090;6.074;2023-11-19T13:56:08;44.15;;;7.70;;
53108;SDS011;39007;53.090;6.074;2023-11-19T13:58:34;38.05;;;7.25;;
53108;SDS011;39007;53.090;6.074;2023-11-19T14:01:00;36.53;;;7.60;;
53108;SDS011;39007;53.090;6.074;2023-11-19T14:03:26;36.00;;;7.43;;
53108;SDS011;39007;53.090;6.074;2023-11-19T14:05:53;36.58;;;7.28;;
53108;SDS011;39007;53.090;6.074;2023-11-19T14:08:20;46.38;;;7.28;;
53108;SDS011;39007;53.090;6.074;2023-11-19T14:10:46;38.53;;;7.38;;
53108;SDS011;39007;53.090;6.074;2023-11-19T14:13:12;40.03;;;7.88;;
53108;SDS011;39007;53.090;6.074;2023-11-19T14:15:40;37.58;;;6.78;;
53108;SDS011;39007;53.090;6.074;2023-11-19T14:18:07;42.85;;;8.07;;
53108;SDS011;39007;53.090;6.074;2023-11-19T14:20:33;39.30;;;8.02;;
53108;SDS011;39007;53.090;6.074;2023-11-19T14:23:01;41.00;;;7.63;;
53108;SDS011;39007;53.090;6.074;2023-11-19T14:25:27;41.67;;;8.27;;
53108;SDS011;39007;53.090;6.074;2023-11-19T14:27:53;41.30;;;7.90;;
53108;SDS011;39007;53.090;6.074;2023-11-19T14:30:19;40.70;;;7.85;;
53108;SDS011;39007;53.090;6.074;2023-11-19T14:32:46;36.10;;;7.93;;
53108;SDS011;39007;53.090;6.074;2023-11-19T14:35:13;36.88;;;7.47;;
53108;SDS011;39007;53.090;6.074;2023-11-19T14:37:39;33.83;;;6.47;;
53108;SDS011;39007;53.090;6.074;2023-11-19T14:40:06;37.05;;;7.93;;
53108;SDS011;39007;53.090;6.074;2023-11-19T14:42:35;42.38;;;7.40;;
53108;SDS011;39007;53.090;6.074;2023-11-19T14:45:02;38.83;;;8.10;;
53108;SDS011;39007;53.090;6.074;2023-11-19T14:47:28;40.05;;;7.68;;
53108;SDS011;39007;53.090;6.074;2023-11-19T14:49:55;37.20;;;7.30;;
53108;SDS011;39007;53.090;6.074;2023-11-19T14:52:21;36.08;;;6.28;;
53108;SDS011;39007;53.090;6.074;2023-11-19T14:54:48;36.35;;;6.70;;
53108;SDS011;39007;53.090;6.074;2023-11-19T14:57:16;41.00;;;6.63;;
53108;SDS011;39007;53.090;6.074;2023-11-19T14:59:42;30.75;;;6.13;;
53108;SDS011;39007;53.090;6.074;2023-11-19T15:02:08;37.83;;;6.55;;
53108;SDS011;39007;53.090;6.074;2023-11-19T15:04:35;33.13;;;7.05;;
53108;SDS011;39007;53.090;6.074;2023-11-19T15:07:02;37.78;;;7.00;;
53108;SDS011;39007;53.090;6.074;2023-11-19T15:09:29;39.75;;;6.88;;